Aeroporto :







RITROVATECI SU...

 
LOGIN :

Iscrizione | Disclaimer

   EN    FR    IT 

 









Sommario :    VFR   VFR Marginale   IFR   IFR Intensivo   IFR Molto Intensivo
Visibilità : 
Base nubi : 
>= 8 km
>= 3000ft
5 / 8 km
1000 / 3000 ft
1500m / 5 km
500 / 1000 ft
800 / 1500m
200 / 500 ft
< 800m
< 200 ft
Simboli :   Temporali  Nebbia  Neve Forte  Precipitazioni Forti  Vento > 20 kt






- Altitudine del aeroporto : 1270 ft
- Codice IATA : YMT


CYMT - Chapais

ULTIMO METAR :
  • 241217Z AUTO 18009KT 9SM -SN OVC026 M02/M03 A2952 RMK SLP019

METARs OBSOLETI :
  • 241100Z AUTO 17010KT 9SM OVC030 M02/M03 A2953 RMK SLP020
  • 241028Z AUTO 18012KT 9SM OVC032 M02/M03 A2954 RMK SLP024
  • 241015Z AUTO 17011KT 9SM -SN OVC034 M02/M03 A2954 RMK SLP025
  • 241006Z AUTO 17011G17KT 9SM OVC034 M02/M03 A2954 RMK SLP025
  • 240938Z AUTO 17009KT 7SM -SN SCT008 OVC036 M02/M03 A2955 RMK SLP026
  • 240922Z AUTO 16011G17KT 8SM FEW008 OVC036 M03/M04 A2955 RMK SLP026

Previsioni scadute.



MetMap, La meteo Aeronautica in un colpo d'occhio ! - Copyright ORBIFLY Dicembre 2007 - Disclaimer

ORBIFLY MET'MAP TEAM :

Programmazione e sviluppo : Alexandra Zaïnal
Concezione : Baudouin d'Aumeries
Aiuto per la programmazione : Marc-Olivier Méhu
Supporto tecnico e logistico : Manuel Goepfert
Aiuto per la traduzione : Arnaldo La Scala

Contatto : metmap@orbifly.com




FONTI E CREDITI :

   NOAA